Time;durP1;ratioP1;P1;durP2;ratioP2;P2;SDS_P1;SDS_P2;PMS_P1;PMS_P2;Temp;Humidity;BMP_temperature;BMP_pressure;BME280_temperature;BME280_humidity;BME280_pressure;Samples;Min_cycle;Max_cycle;Signal;HPM_P1;HPM_P2
2021/07/11 00:00:29;;;;;;;10.90;9.30;;;;;;;17.75;100.00;100293.25;5048686;28;20519;-61
2021/07/11 00:02:56;;;;;;;10.98;9.73;;;;;;;17.78;100.00;100291.22;5042179;28;20052;-60
2021/07/11 00:05:24;;;;;;;10.82;9.35;;;;;;;17.81;100.00;100298.13;5042669;28;20049;-61
2021/07/11 00:07:51;;;;;;;12.45;10.23;;;;;;;17.87;100.00;100303.88;5052854;28;20059;-61
2021/07/11 00:10:19;;;;;;;13.10;10.40;;;;;;;17.94;100.00;100303.41;5041992;28;20077;-61
2021/07/11 00:12:49;;;;;;;13.00;10.80;;;;;;;17.99;100.00;100303.84;5045664;28;20496;-60
2021/07/11 00:15:18;;;;;;;10.82;9.73;;;;;;;18.00;100.00;100303.75;5043351;28;20056;-59
2021/07/11 00:17:47;;;;;;;13.02;11.25;;;;;;;17.98;100.00;100297.66;5046872;28;20049;-60
2021/07/11 00:20:15;;;;;;;15.23;12.38;;;;;;;17.99;100.00;100303.84;5043410;28;20049;-59
2021/07/11 00:22:42;;;;;;;17.05;11.90;;;;;;;17.94;100.00;100316.78;5051538;28;20148;-59
2021/07/11 00:25:10;;;;;;;15.30;13.13;;;;;;;17.88;100.00;100310.94;5039832;28;20048;-61
2021/07/11 00:27:36;;;;;;;15.65;13.85;;;;;;;17.86;100.00;100310.19;5038208;28;20049;-58
2021/07/11 00:30:07;;;;;;;15.75;13.65;;;;;;;17.81;100.00;100306.16;5042453;28;20048;-59
2021/07/11 00:32:34;;;;;;;14.50;12.95;;;;;;;17.75;100.00;100304.84;5048279;28;20053;-59
2021/07/11 00:35:01;;;;;;;14.93;13.30;;;;;;;17.71;100.00;100300.69;5045124;28;20071;-60
2021/07/11 00:37:27;;;;;;;16.95;13.27;;;;;;;17.68;100.00;100303.59;5044620;28;20055;-59
2021/07/11 00:39:54;;;;;;;15.77;12.55;;;;;;;17.69;100.00;100307.13;5044567;28;20044;-59
2021/07/11 00:42:20;;;;;;;16.20;13.05;;;;;;;17.68;100.00;100303.59;5043846;28;20048;-57
2021/07/11 00:44:47;;;;;;;13.52;12.13;;;;;;;17.69;100.00;100309.81;5041581;28;20056;-60
2021/07/11 00:47:13;;;;;;;12.23;10.90;;;;;;;17.69;100.00;100304.44;5051410;28;20052;-60
2021/07/11 00:49:44;;;;;;;12.25;10.10;;;;;;;17.62;100.00;100312.09;5051166;28;20091;-60
2021/07/11 00:52:11;;;;;;;;;;;;;;;17.57;100.00;100311.56;5049406;28;20048;-59
2021/07/11 00:54:38;;;;;;;10.98;9.73;;;;;;;17.57;100.00;100308.91;5006385;28;1109398;-60
2021/07/11 00:57:06;;;;;;;11.90;9.70;;;;;;;17.54;100.00;100312.66;5049553;28;20051;-60
2021/07/11 00:59:34;;;;;;;12.18;9.52;;;;;;;17.53;100.00;100310.97;5047084;28;20045;-61
2021/07/11 01:02:31;;;;;;;11.18;10.00;;;;;;;17.53;100.00;100316.31;5052980;28;20037;-60
2021/07/11 01:05:07;;;;;;;16.15;12.05;;;;;;;17.53;100.00;100310.97;5045811;28;20071;-59
2021/07/11 01:07:43;;;;;;;15.18;12.02;;;;;;;17.53;100.00;100305.59;5058883;28;20454;-60
2021/07/11 01:10:29;;;;;;;14.15;11.75;;;;;;;17.50;100.00;100308.50;5050815;28;20048;-60
2021/07/11 01:12:58;;;;;;;13.13;11.65;;;;;;;17.51;100.00;100309.34;5045092;28;20049;-59
2021/07/11 01:15:27;;;;;;;14.20;11.77;;;;;;;17.50;100.00;100307.66;5043502;28;20045;-60
2021/07/11 01:18:05;;;;;;;13.15;11.35;;;;;;;17.49;100.00;100309.47;5049891;28;20053;-59
2021/07/11 01:20:54;;;;;;;12.52;11.25;;;;;;;17.52;100.00;100305.72;5027947;28;20049;-61
2021/07/11 01:23:35;;;;;;;12.80;10.82;;;;;;;17.54;100.00;100306.44;5045891;28;20420;-61
2021/07/11 01:26:05;;;;;;;12.98;9.82;;;;;;;17.54;100.00;100301.94;5049003;28;20057;-60
2021/07/11 01:28:32;;;;;;;10.40;8.98;;;;;;;17.50;100.00;100303.16;5049435;28;20053;-61
2021/07/11 01:30:58;;;;;;;11.35;9.18;;;;;;;17.48;100.00;100313.13;5048214;28;20570;-60
2021/07/11 01:33:28;;;;;;;10.68;8.75;;;;;;;17.46;100.00;100309.75;5050258;28;20049;-60
2021/07/11 01:35:55;;;;;;;10.60;8.88;;;;;;;17.46;100.00;100309.75;5039774;28;20045;-59
2021/07/11 01:38:22;;;;;;;10.60;8.60;;;;;;;17.45;100.00;100315.22;5046859;28;20052;-58
2021/07/11 01:40:49;;;;;;;9.45;8.23;;;;;;;17.43;100.00;100309.97;5052100;28;20281;-60
2021/07/11 01:43:19;;;;;;;9.80;8.77;;;;;;;17.46;100.00;100315.09;5046162;28;20053;-59
2021/07/11 01:45:50;;;;;;;9.33;7.43;;;;;;;17.44;100.00;100311.69;5040325;28;20064;-58
2021/07/11 01:48:17;;;;;;;8.63;7.82;;;;;;;17.46;100.00;100315.09;5044801;28;20051;-60
2021/07/11 01:50:50;;;;;;;9.63;7.97;;;;;;;17.45;100.00;100313.38;5037592;28;20049;-60
2021/07/11 01:53:22;;;;;;;8.35;7.28;;;;;;;17.42;100.00;100313.63;5043326;28;20045;-60
2021/07/11 01:55:50;;;;;;;9.50;7.43;;;;;;;17.43;100.00;100323.34;5047697;28;20045;-60
2021/07/11 01:58:17;;;;;;;10.55;7.28;;;;;;;17.43;100.00;100319.81;5048769;28;20090;-60
2021/07/11 02:00:44;;;;;;;9.70;7.57;;;;;;;17.45;100.00;100323.25;5049141;28;20420;-59
2021/07/11 02:03:18;;;;;;;8.43;6.97;;;;;;;17.44;100.00;100316.19;5051182;28;20059;-59
2021/07/11 02:05:46;;;;;;;7.43;6.13;;;;;;;17.45;100.00;100324.09;5055491;28;20143;-60
2021/07/11 02:08:14;;;;;;;8.60;6.95;;;;;;;17.44;100.00;100321.53;5044512;28;20068;-58
2021/07/11 02:10:44;;;;;;;7.07;6.38;;;;;;;17.43;100.00;100320.69;5045752;28;20175;-60
2021/07/11 02:13:15;;;;;;;8.90;6.22;;;;;;;17.43;100.00;100317.16;5044737;28;20063;-60
2021/07/11 02:15:46;;;;;;;7.50;5.65;;;;;;;17.40;100.00;100314.69;5044387;28;20049;-61
2021/07/11 02:18:16;;;;;;;7.30;5.75;;;;;;;17.39;100.00;100313.00;5066782;28;20457;-61
2021/07/11 02:20:47;;;;;;;7.32;5.90;;;;;;;17.40;100.00;100315.56;5056221;28;20045;-61
2021/07/11 02:23:17;;;;;;;8.75;5.63;;;;;;;17.42;100.00;100310.94;5043141;28;20061;-60
2021/07/11 02:25:48;;;;;;;10.53;6.00;;;;;;;17.39;100.00;100311.16;5046536;28;20055;-60
2021/07/11 02:28:16;;;;;;;6.68;5.85;;;;;;;17.40;100.00;100314.69;5042839;28;20045;-60
2021/07/11 02:30:56;;;;;;;8.55;6.70;;;;;;;17.39;100.00;100315.66;5045779;28;20053;-61
2021/07/11 02:33:32;;;;;;;6.55;5.45;;;;;;;17.36;100.00;100318.56;5048343;28;20212;-61
2021/07/11 02:36:01;;;;;;;7.70;6.20;;;;;;;17.36;100.00;100321.25;5053157;28;20526;-59
2021/07/11 02:38:41;;;;;;;7.22;6.15;;;;;;;17.35;100.00;100322.22;5050525;28;20056;-61
2021/07/11 02:41:08;;;;;;;8.57;5.78;;;;;;;17.36;100.00;100329.28;5036013;28;20753;-60
2021/07/11 02:43:36;;;;;;;7.55;5.78;;;;;;;17.38;100.00;100333.53;5054489;28;20045;-60
2021/07/11 02:46:03;;;;;;;8.25;5.85;;;;;;;17.38;100.00;100332.69;5049366;28;20045;-60
2021/07/11 02:48:31;;;;;;;8.23;5.88;;;;;;;17.39;100.00;100329.03;5050674;28;20071;-60
2021/07/11 02:50:58;;;;;;;7.38;5.25;;;;;;;17.39;100.00;100326.38;5048461;28;20057;-60
2021/07/11 02:53:28;;;;;;;6.82;5.47;;;;;;;17.39;100.00;100319.19;5045770;28;20053;-61
2021/07/11 02:55:58;;;;;;;8.30;5.50;;;;;;;17.40;100.00;100322.72;5045323;28;20051;-61
2021/07/11 02:58:27;;;;;;;6.70;5.30;;;;;;;17.40;100.00;100323.56;5045219;28;20049;-60
2021/07/11 03:00:56;;;;;;;6.78;5.63;;;;;;;17.40;100.00;100325.41;5019765;28;20049;-59
2021/07/11 03:03:23;;;;;;;5.78;5.18;;;;;;;17.41;100.00;100321.75;5035033;28;20443;-60
2021/07/11 03:05:50;;;;;;;6.35;5.35;;;;;;;17.37;100.00;100318.47;5043772;28;20555;-61
2021/07/11 03:08:16;;;;;;;8.52;5.60;;;;;;;17.37;100.00;100323.81;5045308;28;20049;-60
2021/07/11 03:10:43;;;;;;;8.45;6.10;;;;;;;17.36;100.00;100318.56;5045200;28;20041;-60
2021/07/11 03:13:11;;;;;;;7.78;5.50;;;;;;;17.36;100.00;100324.78;5032883;28;20061;-60
2021/07/11 03:15:38;;;;;;;8.90;5.93;;;;;;;17.33;100.00;100316.97;5046503;28;20427;-59
2021/07/11 03:18:06;;;;;;;9.05;5.95;;;;;;;17.32;100.00;100317.09;5042981;28;20053;-60
2021/07/11 03:20:33;;;;;;;9.43;5.82;;;;;;;17.31;100.00;100323.44;5042884;28;20049;-60
2021/07/11 03:23:01;;;;;;;7.32;5.60;;;;;;;17.33;100.00;100326.81;5045665;28;20048;-60
2021/07/11 03:25:28;;;;;;;7.60;6.28;;;;;;;17.36;100.00;100319.41;5048448;28;20092;-60
2021/07/11 03:27:56;;;;;;;6.60;5.63;;;;;;;17.39;100.00;100321.88;5048313;28;20060;-59
2021/07/11 03:30:24;;;;;;;7.53;5.55;;;;;;;17.37;100.00;100325.63;5047701;28;20126;-60
2021/07/11 03:33:00;;;;;;;8.57;5.60;;;;;;;17.36;100.00;100331.94;5047572;28;20135;-60
2021/07/11 03:35:37;;;;;;;5.57;4.90;;;;;;;17.37;100.00;100331.84;5046981;28;20045;-61
2021/07/11 03:38:05;;;;;;;6.43;4.63;;;;;;;17.34;100.00;100333.88;5046518;28;20052;-61
2021/07/11 03:40:44;;;;;;;8.38;5.88;;;;;;;17.31;100.00;100336.81;5046333;28;20053;-60
2021/07/11 03:43:13;;;;;;;7.82;5.57;;;;;;;17.31;100.00;100334.16;5046967;28;20649;-61
2021/07/11 03:45:43;;;;;;;8.32;5.40;;;;;;;17.32;100.00;100335.81;5050529;28;20048;-62
2021/07/11 03:48:31;;;;;;;9.05;5.65;;;;;;;17.31;100.00;100335.00;5048504;28;20118;-60
2021/07/11 03:51:01;;;;;;;8.35;6.43;;;;;;;17.30;100.00;100335.13;5042273;28;20089;-61
2021/07/11 03:53:29;;;;;;;;;;;;;;;17.25;100.00;100332.78;5038251;28;20147;-61
2021/07/11 03:55:58;;;;;;;10.90;6.90;;;;;;;17.23;100.00;100326.69;5049763;28;19927;-61
2021/07/11 03:58:29;;;;;;;8.30;6.93;;;;;;;17.18;100.00;100332.38;5047489;28;20053;-60
2021/07/11 04:00:56;;;;;;;8.20;6.88;;;;;;;17.15;100.00;100337.97;5049429;28;20037;-62
2021/07/11 04:03:24;;;;;;;8.60;7.35;;;;;;;17.16;100.00;100334.31;5050898;28;20535;-62
2021/07/11 04:05:52;;;;;;;9.52;7.63;;;;;;;17.16;100.00;100334.31;5047738;28;20057;-61
2021/07/11 04:08:20;;;;;;;9.65;7.63;;;;;;;17.18;100.00;100345.75;5047668;28;20248;-60
2021/07/11 04:10:48;;;;;;;13.20;7.80;;;;;;;17.16;100.00;100347.69;5038210;28;20048;-60
2021/07/11 04:13:15;;;;;;;11.52;8.10;;;;;;;17.17;100.00;100359.25;5049493;28;20051;-60
2021/07/11 04:15:50;;;;;;;11.73;8.32;;;;;;;17.19;100.00;100360.84;5044582;28;20127;-61
2021/07/11 04:18:18;;;;;;;12.90;8.55;;;;;;;17.22;100.00;100367.78;5050170;28;20041;-61
2021/07/11 04:20:46;;;;;;;14.05;8.75;;;;;;;17.28;100.00;100359.31;5047344;28;20048;-62
2021/07/11 04:23:13;;;;;;;9.98;8.77;;;;;;;17.26;100.00;100361.25;5041589;28;20057;-62
2021/07/11 04:25:41;;;;;;;14.15;9.50;;;;;;;17.26;100.00;100365.75;5049115;28;20055;-62
2021/07/11 04:28:10;;;;;;;15.43;9.45;;;;;;;17.24;100.00;100373.03;5040811;28;20049;-60
2021/07/11 04:30:37;;;;;;;14.50;10.13;;;;;;;17.25;100.00;100370.25;5038511;28;20083;-60
2021/07/11 04:33:04;;;;;;;13.30;10.48;;;;;;;17.25;100.00;100364.88;5045468;28;20053;-60
2021/07/11 04:35:31;;;;;;;13.30;10.35;;;;;;;17.25;100.00;100369.38;5051956;28;20049;-60
2021/07/11 04:37:58;;;;;;;11.10;9.75;;;;;;;17.24;100.00;100370.34;5044170;28;20099;-60
2021/07/11 04:40:24;;;;;;;17.75;10.07;;;;;;;17.20;100.00;100367.03;5046557;28;20119;-60
2021/07/11 04:42:51;;;;;;;14.07;9.55;;;;;;;17.24;100.00;100373.03;5045512;28;20049;-59
2021/07/11 04:45:19;;;;;;;11.23;8.93;;;;;;;17.25;100.00;100375.59;5045928;28;20059;-61
2021/07/11 04:47:45;;;;;;;13.77;9.48;;;;;;;17.29;100.00;100378.91;5050173;28;20052;-61
2021/07/11 04:50:12;;;;;;;9.52;8.52;;;;;;;17.32;100.00;100373.28;5044253;28;20426;-61
2021/07/11 04:52:40;;;;;;;15.73;9.02;;;;;;;17.32;100.00;100376.81;5046044;28;20061;-60
2021/07/11 04:55:09;;;;;;;13.07;8.93;;;;;;;17.34;100.00;100384.75;5044327;28;20610;-60
2021/07/11 04:57:37;;;;;;;11.23;9.18;;;;;;;17.37;100.00;100385.38;5044191;28;20045;-61
2021/07/11 05:00:06;;;;;;;13.43;9.88;;;;;;;17.38;100.00;100384.41;5048192;28;20590;-61
2021/07/11 05:02:33;;;;;;;15.90;10.23;;;;;;;17.39;100.00;100387.94;5044572;28;20055;-61
2021/07/11 05:05:00;;;;;;;11.75;9.70;;;;;;;17.36;100.00;100393.50;5040511;28;20498;-62
2021/07/11 05:07:27;;;;;;;12.27;10.07;;;;;;;17.35;100.00;100389.97;5043191;28;20088;-62
2021/07/11 05:09:53;;;;;;;12.10;9.27;;;;;;;17.35;100.00;100386.44;5046789;28;20500;-61
2021/07/11 05:12:20;;;;;;;14.45;9.30;;;;;;;17.40;100.00;100392.31;5039061;28;20429;-62
2021/07/11 05:14:46;;;;;;;12.48;9.57;;;;;;;17.41;100.00;100392.22;5047873;28;20063;-61
2021/07/11 05:17:13;;;;;;;13.80;9.32;;;;;;;17.42;100.00;100390.38;5039639;28;20045;-62
2021/07/11 05:19:40;;;;;;;10.80;8.98;;;;;;;17.46;100.00;100391.88;5046038;28;20052;-61
2021/07/11 05:22:06;;;;;;;16.20;8.88;;;;;;;17.51;100.00;100387.00;5041269;28;20040;-62
2021/07/11 05:24:33;;;;;;;11.00;8.40;;;;;;;17.57;100.00;100394.59;5046485;28;20064;-62
2021/07/11 05:26:59;;;;;;;14.00;7.93;;;;;;;17.58;100.00;100398.97;5045433;28;20053;-61
2021/07/11 05:29:25;;;;;;;11.70;7.93;;;;;;;17.60;100.00;100394.34;5048199;28;20060;-59
2021/07/11 05:31:52;;;;;;;10.52;8.02;;;;;;;17.60;100.00;100399.72;5038052;28;20493;-61
2021/07/11 05:34:19;;;;;;;10.57;8.13;;;;;;;17.59;100.00;100398.00;5036668;28;20157;-61
2021/07/11 05:36:45;;;;;;;15.18;8.50;;;;;;;17.63;100.00;100404.81;5046100;28;20060;-61
2021/07/11 05:39:12;;;;;;;13.38;7.80;;;;;;;17.60;100.00;100404.22;5043785;28;20049;-61
2021/07/11 05:41:38;;;;;;;11.18;7.43;;;;;;;17.62;100.00;100402.28;5044678;28;20170;-61
2021/07/11 05:44:05;;;;;;;11.45;7.07;;;;;;;17.63;100.00;100409.34;5037390;28;20409;-60
2021/07/11 05:46:31;;;;;;;9.93;6.50;;;;;;;17.65;100.00;100412.75;5046893;28;20055;-60
2021/07/11 05:48:58;;;;;;;13.05;7.55;;;;;;;17.68;100.00;100410.72;5035954;28;20096;-60
2021/07/11 05:51:26;;;;;;;11.95;7.80;;;;;;;17.69;100.00;100414.25;5038889;28;20060;-60
2021/07/11 05:53:53;;;;;;;11.60;7.43;;;;;;;17.70;100.00;100414.13;5041021;28;20648;-60
2021/07/11 05:56:19;;;;;;;12.40;6.88;;;;;;;17.73;100.00;100418.41;5050195;28;20049;-60
2021/07/11 05:58:46;;;;;;;9.10;6.80;;;;;;;17.72;100.00;100424.72;5045042;28;20140;-59
2021/07/11 06:01:13;;;;;;;8.35;6.80;;;;;;;17.71;100.00;100418.53;5058465;28;20049;-61
2021/07/11 06:03:39;;;;;;;11.98;7.07;;;;;;;17.74;100.00;100426.31;5047722;28;20661;-62
2021/07/11 06:06:06;;;;;;;13.95;7.65;;;;;;;17.75;100.00;100419.16;5046772;28;20052;-62
2021/07/11 06:08:33;;;;;;;14.07;8.00;;;;;;;17.78;100.00;100421.59;5038029;28;20060;-61
2021/07/11 06:10:59;;;;;;;9.45;7.05;;;;;;;17.78;100.00;100422.44;5055591;28;20054;-61
2021/07/11 06:13:26;;;;;;;11.32;7.65;;;;;;;17.82;100.00;100425.72;5062928;28;20056;-62
2021/07/11 06:15:53;;;;;;;11.52;6.93;;;;;;;17.81;100.00;100426.69;5066292;28;20053;-61
2021/07/11 06:18:19;;;;;;;10.98;6.65;;;;;;;17.83;100.00;100432.78;5040318;28;20049;-63
2021/07/11 06:20:46;;;;;;;10.88;7.55;;;;;;;17.78;100.00;100435.84;5042786;28;20049;-61
2021/07/11 06:23:12;;;;;;;11.45;8.05;;;;;;;17.76;100.00;100431.56;5038068;28;20037;-60
2021/07/11 06:25:39;;;;;;;12.25;7.47;;;;;;;17.76;100.00;100428.88;5045100;28;20060;-62
2021/07/11 06:28:06;;;;;;;8.85;6.95;;;;;;;17.76;100.00;100437.78;5053996;28;20057;-60
2021/07/11 06:30:32;;;;;;;10.23;6.45;;;;;;;17.78;100.00;100433.16;5040727;28;20056;-60
2021/07/11 06:32:59;;;;;;;11.50;7.00;;;;;;;17.83;100.00;100439.00;5041934;28;20073;-60
2021/07/11 06:35:27;;;;;;;13.60;6.97;;;;;;;17.84;100.00;100432.69;5044456;28;20055;-60
2021/07/11 06:37:54;;;;;;;9.70;7.13;;;;;;;17.84;100.00;100431.81;5038945;28;20468;-61
2021/07/11 06:40:22;;;;;;;9.60;6.78;;;;;;;17.81;100.00;100437.41;5039942;28;20053;-61
2021/07/11 06:42:49;;;;;;;11.75;7.25;;;;;;;17.77;100.00;100434.13;5041644;28;20412;-60
2021/07/11 06:45:15;;;;;;;9.77;7.75;;;;;;;17.75;100.00;100432.53;5038087;28;20055;-58
2021/07/11 06:47:42;;;;;;;12.18;7.40;;;;;;;17.73;100.00;100438.00;5041068;28;20060;-62
2021/07/11 06:50:11;;;;;;;8.52;6.28;;;;;;;17.76;100.00;100450.31;5043037;28;20057;-61
2021/07/11 06:53:02;;;;;;;8.38;5.28;;;;;;;17.76;100.00;100442.28;5050793;28;20040;-62
2021/07/11 06:55:29;;;;;;;9.88;5.18;;;;;;;17.75;100.00;100440.56;5039901;28;20048;-62
2021/07/11 06:57:55;;;;;;;6.82;4.63;;;;;;;17.71;100.00;100447.97;5041750;28;20049;-62
2021/07/11 07:00:22;;;;;;;9.27;4.88;;;;;;;17.70;100.00;100440.91;5044224;28;20723;-62
2021/07/11 07:02:48;;;;;;;8.63;5.38;;;;;;;17.76;100.00;100450.31;5043595;28;20045;-61
2021/07/11 07:05:15;;;;;;;6.38;5.32;;;;;;;17.77;100.00;100447.53;5038754;28;20051;-62
2021/07/11 07:07:41;;;;;;;7.28;5.47;;;;;;;17.79;100.00;100450.91;5040554;28;20431;-62
2021/07/11 07:10:13;;;;;;;6.07;4.93;;;;;;;17.84;100.00;100447.91;5039992;28;20045;-61
2021/07/11 07:12:42;;;;;;;6.82;4.38;;;;;;;17.87;100.00;100445.00;5032357;28;20053;-62
2021/07/11 07:15:09;;;;;;;5.72;4.60;;;;;;;17.90;100.00;100449.25;5030351;28;20497;-61
2021/07/11 07:17:36;;;;;;;6.18;3.97;;;;;;;17.85;99.41;100445.09;5028197;28;20044;-61
2021/07/11 07:20:05;;;;;;;5.28;3.97;;;;;;;17.82;98.70;100453.38;5037206;28;20072;-62
2021/07/11 07:22:33;;;;;;;4.65;4.20;;;;;;;17.82;99.28;100452.50;5039312;28;20587;-61
2021/07/11 07:25:05;;;;;;;5.85;3.72;;;;;;;17.78;98.84;100453.75;5038770;28;20045;-61
2021/07/11 07:27:32;;;;;;;5.25;3.75;;;;;;;17.78;98.28;100448.38;5047595;28;20044;-60
2021/07/11 07:29:58;;;;;;;4.40;3.92;;;;;;;17.79;98.60;100450.91;5047312;28;20421;-61
2021/07/11 07:32:25;;;;;;;5.32;3.47;;;;;;;17.78;98.77;100454.59;5041349;28;20050;-61
2021/07/11 07:34:51;;;;;;;3.80;3.50;;;;;;;17.80;98.24;100452.63;5031289;28;20054;-60
2021/07/11 07:37:18;;;;;;;4.05;3.53;;;;;;;17.81;98.18;100448.13;5038989;28;20612;-61
2021/07/11 07:39:44;;;;;;;5.43;3.25;;;;;;;17.78;98.25;100454.59;5046057;28;20072;-61
2021/07/11 07:42:11;;;;;;;3.95;3.40;;;;;;;17.79;97.90;100450.06;5039853;28;20381;-60
2021/07/11 07:44:37;;;;;;;6.03;3.70;;;;;;;17.82;97.57;100460.53;5036066;28;20065;-60
2021/07/11 07:47:04;;;;;;;3.60;3.30;;;;;;;17.84;97.08;100463.97;5040870;28;20049;-61
2021/07/11 07:49:31;;;;;;;4.25;3.85;;;;;;;17.83;96.16;100460.44;5036698;28;20057;-60
2021/07/11 07:51:58;;;;;;;4.15;3.72;;;;;;;17.84;96.51;100470.19;5044453;28;20045;-61
2021/07/11 07:54:24;;;;;;;5.25;3.60;;;;;;;17.85;96.93;100471.88;5040485;28;20053;-60
2021/07/11 07:56:51;;;;;;;6.45;3.72;;;;;;;17.83;96.67;100473.81;5043631;28;20048;-60
2021/07/11 07:59:18;;;;;;;5.32;3.85;;;;;;;17.83;96.88;100470.28;5040592;28;20041;-61
2021/07/11 08:01:44;;;;;;;4.57;3.60;;;;;;;17.82;97.52;100480.16;5039678;28;20047;-61
2021/07/11 08:04:11;;;;;;;6.47;4.03;;;;;;;17.85;97.79;100474.56;5043463;28;20081;-60
2021/07/11 08:06:38;;;;;;;5.05;4.53;;;;;;;17.81;97.78;100474.91;5020869;28;20068;-58
2021/07/11 08:09:05;;;;;;;4.90;4.43;;;;;;;17.77;97.28;100478.81;5044409;28;20518;-61
2021/07/11 08:11:33;;;;;;;5.65;4.15;;;;;;;17.72;97.69;100473.78;5050417;28;20756;-61
2021/07/11 08:14:00;;;;;;;8.45;5.50;;;;;;;17.74;97.65;100481.72;5051627;28;20514;-61
2021/07/11 08:16:26;;;;;;;5.53;4.90;;;;;;;17.71;98.78;100479.25;5047461;28;20057;-61
2021/07/11 08:18:53;;;;;;;7.90;5.38;;;;;;;17.71;99.58;100477.44;5055311;28;20423;-61
2021/07/11 08:21:20;;;;;;;7.57;5.10;;;;;;;17.70;99.88;100478.41;5047224;28;20052;-61
2021/07/11 08:23:47;;;;;;;7.85;5.47;;;;;;;17.70;100.00;100481.09;5040933;28;20044;-59
2021/07/11 08:26:13;;;;;;;7.55;5.68;;;;;;;17.67;99.59;100477.78;5042899;28;20048;-61
2021/07/11 08:28:40;;;;;;;6.85;6.15;;;;;;;17.69;100.00;100475.84;5051863;28;20140;-60
2021/07/11 08:31:06;;;;;;;8.65;6.78;;;;;;;17.75;100.00;100480.75;5049189;28;20064;-60
2021/07/11 08:33:33;;;;;;;7.07;6.38;;;;;;;17.76;100.00;100483.31;5061014;28;20045;-60
2021/07/11 08:36:00;;;;;;;10.50;6.93;;;;;;;17.73;100.00;100488.91;5052129;28;20051;-59
2021/07/11 08:38:27;;;;;;;11.32;7.68;;;;;;;17.77;100.00;100484.16;5045286;28;20045;-62
2021/07/11 08:40:53;;;;;;;15.52;7.72;;;;;;;17.79;100.00;100488.41;5056552;28;20048;-62
2021/07/11 08:43:20;;;;;;;10.10;7.22;;;;;;;17.92;100.00;100491.03;5051724;28;20582;-59
2021/07/11 08:45:47;;;;;;;9.70;8.02;;;;;;;18.02;100.00;100489.34;5046075;28;20068;-59
2021/07/11 08:48:14;;;;;;;10.40;8.07;;;;;;;18.05;100.00;100493.63;5046229;28;20133;-60
2021/07/11 08:50:40;;;;;;;11.85;8.85;;;;;;;18.09;100.00;100495.97;5042514;28;20063;-59
2021/07/11 08:53:14;;;;;;;10.88;8.68;;;;;;;18.17;100.00;100492.69;5047033;28;20052;-59
2021/07/11 08:55:43;;;;;;;14.32;8.40;;;;;;;18.29;99.57;100498.91;5044077;28;20512;-60
2021/07/11 08:58:12;;;;;;;10.05;7.97;;;;;;;18.40;98.92;100502.50;5045609;28;20493;-57
2021/07/11 09:00:38;;;;;;;11.77;8.35;;;;;;;18.54;98.62;100496.91;5044717;28;20052;-59
2021/07/11 09:03:07;;;;;;;10.40;7.75;;;;;;;18.74;97.38;100508.75;5035840;28;20041;-61
2021/07/11 09:05:41;;;;;;;9.85;7.95;;;;;;;18.85;96.84;100503.44;5039935;28;20063;-59
2021/07/11 09:08:12;;;;;;;9.13;7.95;;;;;;;19.00;97.30;100506.72;5046806;28;20044;-61
2021/07/11 09:10:45;;;;;;;9.35;7.60;;;;;;;19.11;96.31;100498.63;5040814;28;20076;-59
2021/07/11 09:13:14;;;;;;;7.93;7.13;;;;;;;19.31;95.33;100502.41;5042634;28;20049;-61
2021/07/11 09:15:45;;;;;;;9.43;7.82;;;;;;;19.43;94.07;100512.13;5042042;28;20048;-61
2021/07/11 09:18:12;;;;;;;9.13;7.22;;;;;;;19.65;94.82;100516.63;5041874;28;20049;-59
2021/07/11 09:20:56;;;;;;;9.32;7.20;;;;;;;19.79;92.34;100519.03;5052266;28;20061;-59
2021/07/11 09:23:25;;;;;;;9.57;7.68;;;;;;;19.92;91.24;100514.31;5042693;28;20087;-61
2021/07/11 09:26:00;;;;;;;8.02;7.13;;;;;;;19.91;91.25;100515.31;5034714;28;20059;-61
2021/07/11 09:28:31;;;;;;;8.52;7.40;;;;;;;19.86;90.42;100517.50;5033466;28;20492;-59
2021/07/11 09:31:05;;;;;;;9.88;7.40;;;;;;;20.03;90.34;100516.09;5034355;28;20045;-59
2021/07/11 09:33:34;;;;;;;12.75;9.32;;;;;;;20.13;88.88;100510.81;5034671;28;20072;-58
2021/07/11 09:36:18;;;;;;;12.40;9.60;;;;;;;20.20;90.58;100507.44;5033748;28;20042;-58
2021/07/11 09:38:50;;;;;;;11.70;9.35;;;;;;;20.26;90.23;100509.63;5033333;28;20049;-59
2021/07/11 09:41:20;;;;;;;9.05;7.95;;;;;;;20.25;84.89;100516.00;5034181;28;20048;-62
2021/07/11 09:43:47;;;;;;;10.55;8.95;;;;;;;20.17;88.75;100517.59;5032905;28;20141;-60
2021/07/11 09:46:15;;;;;;;8.88;7.90;;;;;;;20.20;87.55;100520.91;5039243;28;20045;-59
2021/07/11 09:48:41;;;;;;;9.75;8.55;;;;;;;20.20;88.30;100515.53;5050316;28;20107;-61
2021/07/11 09:51:38;;;;;;;11.50;10.00;;;;;;;20.34;88.98;100517.03;5059448;28;20044;-61
2021/07/11 09:54:10;;;;;;;9.75;8.75;;;;;;;20.54;85.63;100518.03;5046337;28;20052;-62
2021/07/11 09:56:39;;;;;;;8.70;7.80;;;;;;;20.66;84.15;100514.28;5051865;28;20059;-59
2021/07/11 09:59:11;;;;;;;8.13;7.30;;;;;;;20.69;81.99;100519.41;5045594;28;20099;-61
2021/07/11 10:01:40;;;;;;;9.48;8.15;;;;;;;20.56;82.94;100519.63;5049587;28;20049;-60
2021/07/11 10:04:08;;;;;;;9.85;8.85;;;;;;;20.55;84.24;100523.28;5045471;28;20036;-60
2021/07/11 10:06:36;;;;;;;9.63;8.00;;;;;;;20.65;80.78;100520.66;5050929;28;20175;-58
2021/07/11 10:09:06;;;;;;;9.45;8.48;;;;;;;20.63;78.95;100518.09;5062272;28;20052;-60
2021/07/11 10:11:33;;;;;;;8.93;8.02;;;;;;;20.50;80.94;100517.44;5042832;28;20041;-59
2021/07/11 10:14:00;;;;;;;9.00;8.10;;;;;;;20.47;81.21;100519.53;5050973;28;20072;-59
2021/07/11 10:16:28;;;;;;;8.95;7.30;;;;;;;20.43;79.31;100510.91;5040507;28;20069;-60
2021/07/11 10:18:58;;;;;;;8.57;7.78;;;;;;;20.48;78.28;100508.66;5043843;28;20068;-61
2021/07/11 10:21:29;;;;;;;;;;;;;;;20.61;81.25;100512.00;5051534;28;20102;-60
2021/07/11 10:23:55;;;;;;;;;;;;;;;20.84;81.48;100514.50;5045452;28;19920;-61
2021/07/11 10:26:23;;;;;;;7.80;7.10;;;;;;;21.03;78.86;100514.59;5042638;28;19921;-61
2021/07/11 10:28:50;;;;;;;8.18;7.13;;;;;;;20.99;77.10;100511.31;5043102;28;20056;-61
2021/07/11 10:31:27;;;;;;;8.65;7.72;;;;;;;21.02;76.14;100518.28;5057653;28;20052;-61
2021/07/11 10:33:56;;;;;;;8.60;7.70;;;;;;;21.13;77.67;100525.41;5053613;28;20044;-59
2021/07/11 10:36:32;;;;;;;8.18;7.35;;;;;;;21.28;75.33;100522.22;5065351;28;20083;-61
2021/07/11 10:39:00;;;;;;;7.80;7.05;;;;;;;21.53;73.32;100511.94;5054320;28;20147;-60
2021/07/11 10:41:29;;;;;;;8.70;7.90;;;;;;;21.82;72.88;100509.28;5039251;28;20051;-61
2021/07/11 10:44:01;;;;;;;6.20;5.60;;;;;;;22.04;70.50;100514.38;5037810;28;20130;-60
2021/07/11 10:46:31;;;;;;;6.55;5.95;;;;;;;22.10;69.52;100513.84;5038029;28;20055;-61
2021/07/11 10:49:18;;;;;;;6.03;5.50;;;;;;;21.90;69.35;100514.78;5039652;28;20079;-60
2021/07/11 10:51:47;;;;;;;7.43;5.50;;;;;;;21.71;67.75;100512.97;5032272;28;20064;-61
2021/07/11 10:54:21;;;;;;;6.30;5.70;;;;;;;21.57;70.08;100513.34;5034765;28;20044;-61
2021/07/11 10:56:48;;;;;;;5.90;5.30;;;;;;;21.54;69.56;100519.88;5040903;28;20041;-61
2021/07/11 10:59:42;;;;;;;5.55;5.05;;;;;;;21.65;69.03;100513.50;5051349;28;20041;-61
2021/07/11 11:02:22;;;;;;;5.67;5.03;;;;;;;21.83;68.24;100519.91;5044069;28;20057;-60
2021/07/11 11:05:04;;;;;;;;;;;;;;;21.90;68.19;100517.50;5036836;28;20483;-61
2021/07/11 11:08:10;;;;;;;6.40;5.72;;;;;;;22.00;68.88;100521.09;5047532;28;20352;-60
2021/07/11 11:10:38;;;;;;;6.00;5.50;;;;;;;22.19;66.55;100515.69;5035044;28;20444;-61
2021/07/11 11:13:12;;;;;;;6.10;5.47;;;;;;;22.33;65.51;100517.09;5047780;28;20060;-61
2021/07/11 11:15:49;;;;;;;5.85;5.35;;;;;;;22.52;65.56;100519.72;5050343;28;20574;-60
2021/07/11 11:18:23;;;;;;;5.40;4.90;;;;;;;22.64;64.04;100512.34;5044635;28;20523;-61
2021/07/11 11:21:11;;;;;;;5.53;5.03;;;;;;;22.73;64.26;100522.25;5046312;28;20051;-60
2021/07/11 11:23:48;;;;;;;5.18;4.78;;;;;;;22.84;64.50;100513.97;5036529;28;20041;-59
2021/07/11 11:26:27;;;;;;;5.22;4.72;;;;;;;22.86;62.88;100516.53;5048411;28;20058;-60